Time;durP1;ratioP1;P1;durP2;ratioP2;P2;SDS_P1;SDS_P2;PMS_P1;PMS_P2;Temp;Humidity;BMP_temperature;BMP_pressure;BME280_temperature;BME280_humidity;BME280_pressure;Samples;Min_cycle;Max_cycle;Signal;HPM_P1;HPM_P2
2023/05/21 00:03:20;;;;;;;25.70;19.20;;;;;;;16.27;99.93;101148.05;218898;1286;139163;-89
2023/05/21 00:08:21;;;;;;;23.60;18.40;;;;;;;16.23;99.95;101150.19;219253;1287;140046;-91
2023/05/21 00:13:21;;;;;;;27.10;19.40;;;;;;;16.19;99.94;101147.89;218955;1286;139215;-91
2023/05/21 00:18:24;;;;;;;25.50;18.40;;;;;;;16.13;99.93;101151.14;219341;1287;138921;-89
2023/05/21 00:23:25;;;;;;;28.30;20.90;;;;;;;16.07;100.00;101150.90;218801;1287;139504;-95
2023/05/21 00:28:25;;;;;;;23.30;19.00;;;;;;;16.02;100.00;101145.11;219289;1286;140266;-92
2023/05/21 00:33:28;;;;;;;24.00;18.90;;;;;;;15.97;100.00;101148.20;218872;1286;140068;-94
2023/05/21 00:38:28;;;;;;;25.50;19.80;;;;;;;15.92;100.00;101152.02;219196;1287;139542;-91
2023/05/21 00:43:28;;;;;;;25.50;18.00;;;;;;;15.89;100.00;101147.16;218949;1286;139600;-91
2023/05/21 00:48:31;;;;;;;27.00;19.30;;;;;;;15.84;100.00;101145.17;219158;1286;139153;-90
2023/05/21 00:53:33;;;;;;;23.80;18.40;;;;;;;15.80;100.00;101143.60;218684;1286;139518;-93
2023/05/21 00:58:34;;;;;;;28.90;18.90;;;;;;;15.74;100.00;101137.08;219285;1287;139350;-90
2023/05/21 01:03:37;;;;;;;26.60;18.60;;;;;;;15.70;100.00;101139.45;218675;1286;139591;-91
2023/05/21 01:08:39;;;;;;;22.10;17.00;;;;;;;15.66;100.00;101138.40;219434;1287;140899;-91
2023/05/21 01:13:40;;;;;;;22.60;18.20;;;;;;;15.64;100.00;101134.77;218930;1286;139921;-90
2023/05/21 01:18:43;;;;;;;28.50;19.10;;;;;;;15.60;100.00;101131.50;219368;1286;139469;-91
2023/05/21 01:23:44;;;;;;;22.70;17.90;;;;;;;15.57;100.00;101130.46;218813;1287;139868;-91
2023/05/21 01:28:45;;;;;;;25.00;18.00;;;;;;;15.53;100.00;101130.45;219147;1286;139231;-91
2023/05/21 01:33:49;;;;;;;22.70;18.10;;;;;;;15.50;100.00;101130.52;218783;1288;139583;-89
2023/05/21 01:39:16;;;;;;;27.20;19.00;;;;;;;15.44;100.00;101129.95;219362;1286;139410;-91
2023/05/21 01:44:17;;;;;;;23.30;18.40;;;;;;;15.39;100.00;101131.69;218890;1288;139611;-92
2023/05/21 01:49:18;;;;;;;27.40;20.10;;;;;;;15.36;100.00;101129.55;218921;1286;139654;-91
2023/05/21 01:54:20;;;;;;;24.00;18.20;;;;;;;15.31;100.00;101133.54;219358;1287;139159;-92
2023/05/21 01:59:21;;;;;;;24.50;20.00;;;;;;;15.27;100.00;101130.20;218742;1286;140961;-91
2023/05/21 02:04:21;;;;;;;26.80;19.50;;;;;;;15.25;100.00;101129.17;219317;1286;139481;-91
2023/05/21 02:09:22;;;;;;;26.60;19.90;;;;;;;15.22;100.00;101127.24;218893;1286;139582;-93
2023/05/21 02:14:24;;;;;;;25.70;19.80;;;;;;;15.19;100.00;101126.20;219378;1286;140055;-91
2023/05/21 02:19:24;;;;;;;31.00;21.40;;;;;;;15.17;100.00;101120.27;218949;1287;140049;-93
2023/05/21 02:24:24;;;;;;;28.10;20.70;;;;;;;15.16;100.00;101120.97;219320;1286;139466;-95
2023/05/21 02:29:25;;;;;;;27.90;19.90;;;;;;;15.17;100.00;101120.19;218733;1286;141217;-92
2023/05/21 02:34:25;;;;;;;29.00;20.10;;;;;;;15.17;100.00;101120.41;219450;1286;138850;-94
2023/05/21 02:39:25;;;;;;;30.20;20.60;;;;;;;15.16;100.00;101120.89;218771;1286;283073;-91
2023/05/21 02:44:26;;;;;;;28.00;20.80;;;;;;;15.15;100.00;101116.44;219304;1287;140260;-92
2023/05/21 02:49:26;;;;;;;29.80;20.70;;;;;;;15.12;100.00;101113.20;218960;1286;142042;-91
2023/05/21 02:54:27;;;;;;;32.20;20.00;;;;;;;15.09;100.00;101108.91;219148;1286;139700;-90
2023/05/21 02:59:27;;;;;;;25.70;20.70;;;;;;;15.07;100.00;101107.63;218756;1286;140510;-90
2023/05/21 03:04:28;;;;;;;28.80;21.40;;;;;;;15.04;100.00;101106.82;219323;1286;139686;-93
2023/05/21 03:09:28;;;;;;;26.20;20.60;;;;;;;15.00;100.00;101104.83;218656;1286;139808;-91
2023/05/21 03:14:28;;;;;;;27.30;19.70;;;;;;;14.97;100.00;101111.08;219233;1286;139813;-92
2023/05/21 03:19:33;;;;;;;27.00;20.40;;;;;;;14.95;100.00;101107.35;218874;1286;139699;-94
2023/05/21 03:24:34;;;;;;;27.30;19.40;;;;;;;14.94;100.00;101107.02;219148;1291;139659;-92
2023/05/21 03:29:34;;;;;;;26.50;19.20;;;;;;;14.95;100.00;101102.27;218838;1287;140489;-93
2023/05/21 03:34:35;;;;;;;25.40;18.90;;;;;;;14.96;100.00;101102.43;219257;1286;139552;-90
2023/05/21 03:39:35;;;;;;;25.50;18.10;;;;;;;14.96;100.00;101103.38;218886;1286;140956;-89
2023/05/21 03:44:36;;;;;;;24.60;16.70;;;;;;;14.97;100.00;101100.85;219487;1286;139309;-90
2023/05/21 03:49:36;;;;;;;22.20;16.80;;;;;;;14.97;100.00;101105.55;218942;1286;140031;-91
2023/05/21 03:54:36;;;;;;;22.90;16.50;;;;;;;14.99;100.00;101095.80;219246;1286;138978;-90
2023/05/21 03:59:37;;;;;;;22.70;17.50;;;;;;;15.01;100.00;101097.07;218743;1286;139832;-91
2023/05/21 04:04:37;;;;;;;23.40;15.30;;;;;;;15.04;100.00;101103.34;219229;1286;139496;-95
2023/05/21 04:09:37;;;;;;;22.30;16.40;;;;;;;15.05;100.00;101099.93;218763;1286;140560;-89
2023/05/21 04:14:37;;;;;;;23.50;16.40;;;;;;;15.08;100.00;101097.10;219351;1286;139863;-90
2023/05/21 04:19:38;;;;;;;19.90;14.50;;;;;;;15.12;100.00;101093.70;218989;1286;139093;-93
2023/05/21 04:24:38;;;;;;;23.50;15.40;;;;;;;15.18;100.00;101095.79;219264;1287;139607;-91
2023/05/21 04:29:41;;;;;;;20.40;14.10;;;;;;;15.24;100.00;101088.75;218884;1286;140888;-91
2023/05/21 04:34:43;;;;;;;19.20;12.80;;;;;;;15.31;100.00;101096.30;219397;1286;139317;-91
2023/05/21 04:39:44;;;;;;;19.70;13.50;;;;;;;15.38;100.00;101092.21;218679;1286;140248;-91
2023/05/21 04:44:44;;;;;;;20.00;13.50;;;;;;;15.45;100.00;101095.72;219159;1286;139238;-91
2023/05/21 04:49:45;;;;;;;18.10;13.00;;;;;;;15.53;100.00;101101.29;218977;1286;139872;-90
2023/05/21 04:54:46;;;;;;;16.60;12.40;;;;;;;15.61;100.00;101099.79;219364;1286;139191;-91
2023/05/21 04:59:48;;;;;;;17.80;12.50;;;;;;;15.71;100.00;101099.64;218789;1286;139685;-90
2023/05/21 05:04:48;;;;;;;19.10;11.60;;;;;;;15.86;100.00;101104.34;219086;1286;139336;-91
2023/05/21 05:09:48;;;;;;;19.40;11.90;;;;;;;16.00;100.00;101104.25;218758;1286;140770;-96
2023/05/21 05:14:49;;;;;;;15.30;10.40;;;;;;;16.16;100.00;101110.04;219059;1286;139353;-90
2023/05/21 05:19:49;;;;;;;16.40;10.00;;;;;;;16.36;100.00;101106.06;218852;1286;138801;-92
2023/05/21 05:24:50;;;;;;;17.00;10.30;;;;;;;16.62;99.83;101102.52;219389;1289;139074;-94
2023/05/21 05:29:50;;;;;;;17.10;9.90;;;;;;;16.96;98.73;101105.34;218892;1288;139894;-91
2023/05/21 05:34:50;;;;;;;12.50;8.70;;;;;;;17.41;98.28;101107.59;219410;1289;138862;-91
2023/05/21 05:39:51;;;;;;;15.30;9.90;;;;;;;17.96;96.41;101105.71;218860;1288;139520;-91
2023/05/21 05:44:51;;;;;;;16.00;9.70;;;;;;;18.46;94.18;101110.05;219337;1286;139030;-87
2023/05/21 05:49:51;;;;;;;14.80;8.80;;;;;;;19.05;91.95;101114.00;218827;1286;139895;-92
2023/05/21 05:54:52;;;;;;;15.70;9.00;;;;;;;19.65;89.94;101115.89;219370;1286;139036;-93
2023/05/21 05:59:52;;;;;;;12.90;8.40;;;;;;;20.30;88.13;101105.98;218927;1286;139621;-92
2023/05/21 06:04:52;;;;;;;12.00;7.80;;;;;;;20.82;84.43;101105.89;219442;1286;139000;-92
2023/05/21 06:09:53;;;;;;;15.50;7.90;;;;;;;21.35;82.65;101106.39;218766;1287;140008;-89
2023/05/21 06:14:53;;;;;;;12.60;7.00;;;;;;;21.78;79.53;101107.09;219336;1286;139395;-93
2023/05/21 06:19:53;;;;;;;12.20;6.90;;;;;;;22.18;76.72;101105.60;218894;1286;140091;-92
2023/05/21 06:24:54;;;;;;;12.80;6.80;;;;;;;22.37;74.83;101108.31;219315;1286;139882;-92
2023/05/21 06:29:54;;;;;;;11.60;6.40;;;;;;;22.61;72.82;101106.42;218761;1286;139262;-90
2023/05/21 06:34:55;;;;;;;11.40;6.00;;;;;;;22.88;71.32;101110.86;219314;1286;138681;-92
2023/05/21 06:39:55;;;;;;;10.10;5.40;;;;;;;23.08;68.79;101115.98;218888;1286;139186;-89
2023/05/21 06:44:55;;;;;;;13.70;5.90;;;;;;;23.41;67.53;101107.80;219367;1287;138178;-91
2023/05/21 06:49:56;;;;;;;13.10;5.80;;;;;;;23.61;65.49;101112.87;218896;1286;138024;-94
2023/05/21 06:54:56;;;;;;;10.10;5.70;;;;;;;23.75;64.12;101111.52;219398;1286;139729;-90
2023/05/21 06:59:56;;;;;;;9.90;5.30;;;;;;;23.98;63.20;101106.30;218811;1286;139625;-90
2023/05/21 07:04:56;;;;;;;11.00;5.20;;;;;;;24.30;62.64;101108.02;219260;1286;138046;-88
2023/05/21 07:09:57;;;;;;;9.40;5.30;;;;;;;24.45;61.00;101103.54;218930;1286;138933;-89
2023/05/21 07:14:57;;;;;;;9.00;5.20;;;;;;;24.63;60.07;101102.06;219379;1286;137991;-88
2023/05/21 07:19:57;;;;;;;9.50;5.70;;;;;;;25.00;59.50;101096.60;218986;1286;138797;-88
2023/05/21 07:24:58;;;;;;;8.40;5.00;;;;;;;25.13;58.42;101095.44;219306;1286;140049;-93
2023/05/21 07:29:58;;;;;;;13.40;5.10;;;;;;;25.10;57.54;101099.08;218892;1286;139186;-90
2023/05/21 07:35:02;;;;;;;9.20;4.70;;;;;;;25.13;56.99;101099.28;219305;1286;138370;-88
2023/05/21 07:40:03;;;;;;;10.40;4.50;;;;;;;25.19;55.83;101096.51;218779;1286;138310;-88
2023/05/21 07:45:04;;;;;;;13.50;4.30;;;;;;;25.22;56.12;101094.15;219359;1286;137533;-88
2023/05/21 07:50:05;;;;;;;11.40;4.40;;;;;;;25.33;55.60;101097.02;218934;1286;138049;-89
2023/05/21 07:55:07;;;;;;;11.30;4.30;;;;;;;25.24;53.35;101093.41;219463;1286;137958;-92
2023/05/21 08:00:09;;;;;;;8.20;4.00;;;;;;;25.17;53.43;101092.89;218712;1286;138698;-92
2023/05/21 08:05:09;;;;;;;8.70;4.70;;;;;;;25.32;53.75;101088.42;219348;1287;138051;-90
2023/05/21 08:10:10;;;;;;;8.60;3.90;;;;;;;25.78;53.97;101091.02;218835;1286;138786;-90
2023/05/21 08:15:10;;;;;;;7.50;3.90;;;;;;;26.18;52.28;101094.77;219346;1286;138056;-89
2023/05/21 08:20:13;;;;;;;8.20;4.30;;;;;;;26.57;51.32;101095.66;218982;1286;137926;-90
2023/05/21 08:25:13;;;;;;;10.20;3.70;;;;;;;27.00;49.81;101090.31;219158;1286;139456;-90
2023/05/21 08:30:14;;;;;;;9.10;4.10;;;;;;;27.35;47.92;101090.65;218872;1286;139390;-88
2023/05/21 08:35:15;;;;;;;9.40;3.40;;;;;;;27.74;46.57;101092.11;219394;1286;138366;-90
2023/05/21 08:40:16;;;;;;;10.00;3.30;;;;;;;28.11;45.91;101099.04;218869;1286;141158;-88
2023/05/21 08:45:21;;;;;;;9.30;3.60;;;;;;;28.78;45.56;101091.89;219363;1286;138597;-91
2023/05/21 08:50:25;;;;;;;5.70;3.00;;;;;;;29.05;43.17;101087.79;218842;1287;140035;-87
2023/05/21 08:55:26;;;;;;;6.30;2.50;;;;;;;29.06;41.87;101085.59;219379;1286;95717;-89
2023/05/21 09:00:26;;;;;;;7.30;3.80;;;;;;;29.22;40.49;101081.70;218718;1286;139247;-85
2023/05/21 09:05:28;;;;;;;7.00;3.20;;;;;;;29.64;41.09;101077.41;219298;1286;138380;-87
2023/05/21 09:10:34;;;;;;;6.00;2.90;;;;;;;29.80;40.14;101078.23;218890;1286;138178;-88
2023/05/21 09:15:35;;;;;;;7.00;3.30;;;;;;;30.03;39.57;101075.23;219286;1286;138267;-88
2023/05/21 09:20:36;;;;;;;10.20;3.20;;;;;;;30.34;39.79;101079.33;218841;1286;138226;-89
2023/05/21 09:25:37;;;;;;;8.40;3.20;;;;;;;30.46;38.69;101077.81;219421;1286;95854;-88
2023/05/21 09:30:50;;;;;;;8.60;3.60;;;;;;;30.36;38.96;101076.77;218917;1286;138300;-90
2023/05/21 09:35:51;;;;;;;9.00;3.40;;;;;;;30.55;38.47;101074.52;219136;1286;138235;-88
2023/05/21 09:40:55;;;;;;;10.30;3.80;;;;;;;31.07;38.76;101073.35;218760;1286;138863;-87
2023/05/21 09:45:56;;;;;;;7.10;3.20;;;;;;;31.15;37.40;101073.70;219430;1286;139201;-87
2023/05/21 09:51:15;;;;;;;10.70;3.60;;;;;;;31.31;36.63;101077.78;218670;1287;138376;-90
2023/05/21 09:56:21;;;;;;;8.40;3.80;;;;;;;31.33;36.24;101074.86;219288;1286;138949;-87
2023/05/21 10:01:23;;;;;;;7.50;3.60;;;;;;;31.70;35.89;101067.48;218880;1286;138934;-85
2023/05/21 10:06:28;;;;;;;6.50;3.70;;;;;;;31.94;35.08;101069.95;219393;1286;138032;-86
2023/05/21 10:11:30;;;;;;;9.60;3.80;;;;;;;31.89;34.11;101065.37;218679;1287;138939;-85
2023/05/21 10:16:32;;;;;;;6.10;2.80;;;;;;;32.03;34.37;101061.70;219428;1286;138108;-88
2023/05/21 10:21:33;;;;;;;10.60;3.50;;;;;;;32.67;34.55;101054.73;218800;1286;138642;-86
2023/05/21 10:26:35;;;;;;;9.80;3.50;;;;;;;33.13;33.93;101050.02;219321;1286;138303;-85
2023/05/21 10:31:38;;;;;;;7.50;3.80;;;;;;;33.14;32.42;101051.84;218882;1286;138580;-84
2023/05/21 10:36:39;;;;;;;6.50;3.50;;;;;;;32.81;32.78;101053.05;219294;1286;137670;-92
2023/05/21 10:41:54;;;;;;;5.40;3.50;;;;;;;32.55;32.28;101043.31;218682;1287;139662;-84
2023/05/21 10:47:09;;;;;;;6.70;3.70;;;;;;;32.59;32.90;101043.27;219278;1286;139762;-88
2023/05/21 10:52:25;;;;;;;8.70;3.90;;;;;;;32.69;32.49;101039.10;218782;1287;139007;-86
2023/05/21 10:57:56;;;;;;;6.60;3.10;;;;;;;32.86;32.90;101028.46;219319;1287;137973;-86
2023/05/21 11:02:57;;;;;;;6.60;3.60;;;;;;;32.93;31.89;101023.30;218808;1286;138393;-83
2023/05/21 11:08:00;;;;;;;9.00;3.50;;;;;;;32.91;32.20;101016.40;219525;1286;95701;-84
2023/05/21 11:13:13;;;;;;;9.10;3.50;;;;;;;32.93;31.96;101011.02;219017;1286;138198;-87
2023/05/21 11:18:14;;;;;;;8.40;3.80;;;;;;;32.95;32.24;101009.92;219225;1286;137966;-91
2023/05/21 11:23:14;;;;;;;8.40;3.80;;;;;;;33.08;31.02;101008.52;218676;1286;140159;-85
2023/05/21 11:28:15;;;;;;;7.10;3.70;;;;;;;32.74;31.18;101010.02;219192;1286;139450;-87
2023/05/21 11:33:18;;;;;;;8.00;3.90;;;;;;;32.55;31.08;101005.32;218880;1286;138940;-83
2023/05/21 11:38:19;;;;;;;7.20;3.40;;;;;;;32.35;31.32;101004.95;219243;1286;139711;-86
2023/05/21 11:43:20;;;;;;;7.50;3.60;;;;;;;32.57;31.73;101001.65;218940;1286;138067;-85
2023/05/21 11:48:23;;;;;;;8.10;3.40;;;;;;;33.24;32.64;100994.05;219395;1287;137801;-86
2023/05/21 11:53:24;;;;;;;6.20;3.30;;;;;;;33.13;31.17;100992.02;218772;1286;138488;-86
2023/05/21 11:58:24;;;;;;;6.00;3.40;;;;;;;32.61;31.17;100992.53;219442;1286;138204;-84
2023/05/21 12:03:25;;;;;;;8.60;3.70;;;;;;;32.38;31.00;100991.70;218896;1286;139318;-84
2023/05/21 12:08:26;;;;;;;6.90;3.20;;;;;;;31.99;30.80;100997.84;219449;1286;138144;-89
2023/05/21 12:13:27;;;;;;;6.90;3.40;;;;;;;31.45;30.83;100987.63;218865;1286;138978;-90
2023/05/21 12:18:27;;;;;;;9.10;3.60;;;;;;;31.37;31.05;100984.52;219334;1286;138053;-88
2023/05/21 12:23:30;;;;;;;6.80;3.80;;;;;;;31.31;31.22;100980.69;218903;1286;140156;-84
2023/05/21 12:28:30;;;;;;;9.20;3.30;;;;;;;31.09;31.83;100975.85;219276;1286;139346;-83
2023/05/21 12:33:34;;;;;;;10.50;3.80;;;;;;;31.34;31.60;100976.17;218778;1286;139698;-88
2023/05/21 12:38:35;;;;;;;7.20;3.60;;;;;;;31.15;31.16;100973.75;219466;1286;138935;-86
2023/05/21 12:43:36;;;;;;;5.30;3.30;;;;;;;30.77;31.14;100972.10;218907;1286;138193;-87
2023/05/21 12:48:37;;;;;;;6.40;3.30;;;;;;;30.61;31.30;100972.04;219373;1286;139878;-84
2023/05/21 12:53:40;;;;;;;5.50;3.20;;;;;;;30.42;31.39;100959.34;218885;1286;139718;-85
2023/05/21 12:58:41;;;;;;;7.20;3.70;;;;;;;30.00;31.91;100963.69;219476;1286;139436;-85
2023/05/21 13:03:42;;;;;;;6.90;3.20;;;;;;;29.95;32.53;100967.79;218806;1286;138246;-86
2023/05/21 13:08:43;;;;;;;8.30;3.60;;;;;;;29.99;32.84;100965.73;219438;1286;138329;-87
2023/05/21 13:13:43;;;;;;;6.50;3.20;;;;;;;29.75;33.01;100962.09;219041;1286;138905;-85
2023/05/21 13:18:44;;;;;;;8.00;3.40;;;;;;;29.71;32.78;100961.09;219437;1286;138273;-85
2023/05/21 13:23:44;;;;;;;7.50;3.60;;;;;;;29.78;33.21;100957.26;218867;1286;137915;-87
2023/05/21 13:28:45;;;;;;;6.70;3.50;;;;;;;29.74;32.87;100953.02;219477;1286;138192;-90
2023/05/21 13:33:46;;;;;;;6.60;3.40;;;;;;;29.51;33.18;100949.85;218878;1286;138588;-86
2023/05/21 13:38:46;;;;;;;7.70;3.60;;;;;;;29.45;33.43;100956.67;219469;1286;138197;-86
2023/05/21 13:43:47;;;;;;;6.50;4.00;;;;;;;29.28;34.21;100948.98;218891;1286;138850;-88
2023/05/21 13:48:47;;;;;;;8.20;3.50;;;;;;;29.13;33.74;100949.48;219388;1286;137956;-83
2023/05/21 13:53:48;;;;;;;8.80;3.50;;;;;;;29.11;33.57;100945.79;218887;1286;138718;-85
2023/05/21 13:58:48;;;;;;;8.10;4.00;;;;;;;28.95;33.58;100940.00;219391;1286;138129;-87
2023/05/21 14:03:49;;;;;;;7.60;3.70;;;;;;;28.83;34.20;100941.85;219024;1286;138237;-87
2023/05/21 14:08:49;;;;;;;8.70;4.00;;;;;;;28.58;33.89;100933.13;219485;1286;140468;-87
2023/05/21 14:13:50;;;;;;;8.50;3.70;;;;;;;28.54;33.74;100927.39;218939;1286;139238;-86
2023/05/21 14:18:50;;;;;;;6.40;3.50;;;;;;;28.48;34.21;100931.39;219386;1286;138073;-89
2023/05/21 14:23:51;;;;;;;13.20;3.40;;;;;;;28.53;33.24;100936.54;218800;1286;138874;-86
2023/05/21 14:28:52;;;;;;;5.10;3.10;;;;;;;28.41;33.61;100932.70;219468;1286;139137;-88
2023/05/21 14:33:52;;;;;;;5.70;3.10;;;;;;;28.41;33.74;100936.25;218904;1286;138090;-85
2023/05/21 14:38:52;;;;;;;6.80;3.50;;;;;;;28.21;33.31;100935.91;219415;1287;136975;-90
2023/05/21 14:43:53;;;;;;;7.50;3.60;;;;;;;28.10;34.61;100931.16;218852;1286;315649;-88
2023/05/21 14:48:57;;;;;;;6.20;3.30;;;;;;;28.17;34.28;100935.26;219469;1286;138420;-85
2023/05/21 14:53:58;;;;;;;8.10;3.50;;;;;;;28.05;34.68;100934.10;218897;1286;138642;-88
2023/05/21 14:58:58;;;;;;;7.20;3.40;;;;;;;27.82;35.03;100940.26;219459;1286;138762;-88
2023/05/21 15:04:01;;;;;;;8.60;3.40;;;;;;;27.70;35.50;100931.40;219229;1286;138216;-87
2023/05/21 15:09:01;;;;;;;5.50;3.10;;;;;;;27.72;35.13;100934.55;218935;1286;138417;-86
2023/05/21 15:14:01;;;;;;;6.00;3.20;;;;;;;27.54;35.57;100932.63;219444;1286;96195;-84
2023/05/21 15:19:02;;;;;;;11.60;3.00;;;;;;;27.36;35.50;100929.77;218908;1287;138430;-87
2023/05/21 15:24:03;;;;;;;9.70;3.10;;;;;;;27.19;35.22;100927.95;219258;1286;138625;-86
2023/05/21 15:29:05;;;;;;;6.60;3.10;;;;;;;26.99;35.27;100925.27;218942;1286;138669;-88
2023/05/21 15:34:05;;;;;;;6.70;2.70;;;;;;;26.83;35.37;100927.38;219172;1286;138925;-85
2023/05/21 15:39:05;;;;;;;7.10;2.90;;;;;;;26.68;35.38;100927.52;218959;1286;138638;-91
2023/05/21 15:44:06;;;;;;;7.50;3.10;;;;;;;26.52;35.68;100920.98;219566;1286;95746;-87
2023/05/21 15:49:06;;;;;;;6.40;2.80;;;;;;;26.36;35.63;100916.73;218947;1286;138864;-90
2023/05/21 15:54:07;;;;;;;7.60;2.90;;;;;;;26.16;36.27;100913.16;219228;1286;137976;-89
2023/05/21 15:59:07;;;;;;;4.40;2.40;;;;;;;25.91;37.19;100909.02;218898;1286;138597;-89
2023/05/21 16:04:08;;;;;;;8.30;2.80;;;;;;;25.72;36.32;100907.19;219454;1287;138559;-89
2023/05/21 16:09:08;;;;;;;12.20;3.00;;;;;;;25.52;36.39;100906.52;218910;1286;138375;-87
2023/05/21 16:14:09;;;;;;;8.60;3.10;;;;;;;25.38;36.40;100907.91;219531;1286;95989;-87
2023/05/21 16:19:10;;;;;;;6.30;2.70;;;;;;;25.15;36.27;100910.48;218925;1288;139753;-86
2023/05/21 16:24:10;;;;;;;4.60;2.40;;;;;;;24.94;36.65;100908.59;219433;1287;138032;-89
2023/05/21 16:29:11;;;;;;;6.80;3.00;;;;;;;24.75;36.77;100909.12;218806;1287;138911;-86
2023/05/21 16:34:11;;;;;;;5.80;2.90;;;;;;;24.55;36.51;100899.76;219468;1286;138224;-88
2023/05/21 16:39:11;;;;;;;9.60;3.30;;;;;;;24.33;36.50;100900.05;218774;1286;140396;-87
2023/05/21 16:44:12;;;;;;;7.60;2.70;;;;;;;24.11;36.17;100897.02;219375;1286;96072;-88
2023/05/21 16:49:13;;;;;;;4.10;2.30;;;;;;;23.94;36.26;100896.91;218880;1286;138135;-85
2023/05/21 16:54:13;;;;;;;6.50;2.50;;;;;;;23.79;36.86;100897.98;219412;1286;138078;-91
2023/05/21 16:59:13;;;;;;;7.50;2.90;;;;;;;23.64;37.26;100899.10;218778;1286;139575;-85
2023/05/21 17:04:14;;;;;;;7.60;2.90;;;;;;;23.50;37.93;100897.08;219407;1286;138292;-91
2023/05/21 17:09:14;;;;;;;5.80;2.80;;;;;;;23.37;37.94;100896.08;218825;1286;140705;-90
2023/05/21 17:14:15;;;;;;;7.10;2.60;;;;;;;23.25;38.04;100902.41;219340;1287;95646;-90
2023/05/21 17:19:15;;;;;;;6.30;2.70;;;;;;;23.14;38.00;100911.37;218840;1286;137832;-89
2023/05/21 17:24:16;;;;;;;6.50;2.90;;;;;;;23.03;38.33;100913.80;219203;1287;139676;-86
2023/05/21 17:29:16;;;;;;;6.90;2.90;;;;;;;22.90;38.58;100914.08;218793;1286;139040;-91
2023/05/21 17:34:16;;;;;;;9.40;3.20;;;;;;;22.78;38.81;100909.96;219401;1286;139257;-88
2023/05/21 17:39:17;;;;;;;6.60;2.60;;;;;;;22.66;38.89;100911.05;218812;1287;138637;-89
2023/05/21 17:44:18;;;;;;;7.20;2.80;;;;;;;22.53;38.96;100903.67;219376;1286;139795;-90
2023/05/21 17:49:18;;;;;;;5.20;2.60;;;;;;;22.41;39.17;100901.21;218980;1286;138930;-86
2023/05/21 17:54:20;;;;;;;7.80;2.80;;;;;;;22.30;39.36;100903.54;219285;1286;138981;-87
2023/05/21 17:59:20;;;;;;;9.40;2.80;;;;;;;22.18;39.96;100895.23;218794;1286;138555;-89
2023/05/21 18:04:21;;;;;;;8.60;2.60;;;;;;;22.07;39.74;100898.37;219452;1287;138226;-89
2023/05/21 18:09:21;;;;;;;9.20;2.70;;;;;;;21.95;39.71;100903.43;218971;1286;139079;-89
2023/05/21 18:14:21;;;;;;;6.10;2.80;;;;;;;21.83;39.74;100907.34;219381;1286;138283;-92
2023/05/21 18:19:22;;;;;;;6.30;2.70;;;;;;;21.72;39.74;100914.48;218987;1286;139057;-88
2023/05/21 18:24:22;;;;;;;7.00;2.70;;;;;;;21.58;40.29;100911.68;219394;1287;137972;-88
2023/05/21 18:29:23;;;;;;;13.40;2.50;;;;;;;21.44;40.45;100906.20;218790;1286;138910;-90
2023/05/21 18:34:23;;;;;;;9.80;2.60;;;;;;;21.32;41.20;100912.52;219360;1287;139409;-89
2023/05/21 18:39:23;;;;;;;7.40;2.80;;;;;;;21.18;41.55;100914.87;218804;1286;139544;-89
2023/05/21 18:44:24;;;;;;;9.40;2.90;;;;;;;21.05;41.48;100919.84;219432;1287;139947;-90
2023/05/21 18:49:25;;;;;;;6.10;3.30;;;;;;;20.89;41.64;100922.19;218913;1286;139245;-90
2023/05/21 18:54:25;;;;;;;5.70;2.80;;;;;;;20.75;41.94;100924.49;219443;1286;138427;-88
2023/05/21 18:59:28;;;;;;;5.10;2.60;;;;;;;20.61;42.26;100927.84;218874;1286;138849;-87
2023/05/21 19:04:28;;;;;;;7.50;2.90;;;;;;;20.45;42.48;100933.96;219407;1286;138369;-89
2023/05/21 19:09:29;;;;;;;8.80;3.30;;;;;;;20.31;42.53;100936.26;218772;1286;138783;-86
2023/05/21 19:14:29;;;;;;;5.50;2.50;;;;;;;20.19;42.75;100930.98;219360;1286;139219;-88
2023/05/21 19:19:29;;;;;;;8.10;3.00;;;;;;;20.07;43.17;100927.95;218958;1286;138154;-89
2023/05/21 19:24:30;;;;;;;8.90;2.70;;;;;;;19.93;43.24;100927.95;219415;1286;138428;-88
2023/05/21 19:29:30;;;;;;;6.80;3.00;;;;;;;19.82;43.26;100925.67;218859;1286;139534;-88
2023/05/21 19:34:31;;;;;;;8.60;3.00;;;;;;;19.71;43.54;100930.28;219374;1287;139689;-88
2023/05/21 19:39:42;;;;;;;7.90;3.50;;;;;;;19.58;43.84;100931.23;218730;1286;138888;-89
2023/05/21 19:44:42;;;;;;;8.80;3.40;;;;;;;19.50;43.92;100926.04;219096;1286;138301;-85
2023/05/21 19:49:43;;;;;;;7.70;3.30;;;;;;;19.41;44.01;100918.69;218878;1287;138433;-88
2023/05/21 19:54:43;;;;;;;9.60;3.30;;;;;;;19.32;44.09;100915.96;219463;1286;138030;-88
2023/05/21 19:59:44;;;;;;;6.30;3.00;;;;;;;19.26;44.39;100913.04;218875;1287;138433;-88
2023/05/21 20:04:44;;;;;;;12.30;3.80;;;;;;;19.17;44.55;100912.13;219380;1287;138424;-87
2023/05/21 20:09:45;;;;;;;7.00;3.20;;;;;;;19.09;45.00;100914.65;218893;1286;139997;-89
2023/05/21 20:14:46;;;;;;;9.40;3.60;;;;;;;19.02;45.02;100919.69;219385;1287;139729;-87
2023/05/21 20:19:46;;;;;;;9.30;3.00;;;;;;;18.95;45.36;100915.90;218962;1286;139689;-86
2023/05/21 20:24:47;;;;;;;8.10;3.60;;;;;;;18.86;45.70;100915.31;219363;1286;138037;-88
2023/05/21 20:29:48;;;;;;;8.90;3.10;;;;;;;18.79;46.09;100912.16;218717;1287;139513;-87
2023/05/21 20:34:48;;;;;;;9.40;3.60;;;;;;;18.72;46.28;100912.42;219383;1287;138468;-88
2023/05/21 20:39:48;;;;;;;7.00;2.90;;;;;;;18.65;46.65;100909.96;218817;1286;139774;-87
2023/05/21 20:44:49;;;;;;;7.80;3.60;;;;;;;18.60;46.70;100912.75;219188;1287;138339;-90
2023/05/21 20:49:52;;;;;;;9.50;3.70;;;;;;;18.55;46.82;100918.16;218854;1286;139750;-86
2023/05/21 20:54:53;;;;;;;7.60;3.70;;;;;;;18.50;46.87;100919.51;219265;1288;137994;-88
2023/05/21 20:59:53;;;;;;;8.30;3.70;;;;;;;18.44;47.18;100918.85;218883;1286;138425;-86
2023/05/21 21:04:55;;;;;;;7.50;3.80;;;;;;;18.37;47.41;100921.50;219310;1286;138338;-88
2023/05/21 21:09:55;;;;;;;9.90;3.70;;;;;;;18.31;47.58;100922.77;218757;1286;138817;-91
2023/05/21 21:14:55;;;;;;;9.80;3.50;;;;;;;18.25;47.88;100922.03;219401;1286;138937;-84
2023/05/21 21:19:56;;;;;;;10.40;3.90;;;;;;;18.18;48.17;100924.09;218859;1288;138552;-88
2023/05/21 21:24:56;;;;;;;7.40;3.30;;;;;;;18.09;48.19;100923.25;219369;1288;138542;-88
2023/05/21 21:29:56;;;;;;;7.10;3.50;;;;;;;18.04;48.43;100917.51;218861;1287;138865;-91
2023/05/21 21:34:57;;;;;;;10.10;3.80;;;;;;;17.96;48.64;100914.56;219178;1287;138499;-88
2023/05/21 21:39:57;;;;;;;8.70;3.90;;;;;;;17.90;48.95;100916.39;218781;1288;140256;-89
2023/05/21 21:44:58;;;;;;;7.00;3.30;;;;;;;17.85;49.06;100918.52;219325;1286;138264;-89
2023/05/21 21:49:58;;;;;;;9.60;4.10;;;;;;;17.78;49.46;100914.45;218948;1286;138794;-88
2023/05/21 21:54:58;;;;;;;6.90;3.40;;;;;;;17.70;49.70;100914.77;219387;1286;138242;-88
2023/05/21 21:59:59;;;;;;;8.00;3.30;;;;;;;17.64;50.00;100914.37;218677;1286;138745;-86
2023/05/21 22:04:59;;;;;;;10.30;3.40;;;;;;;17.58;50.17;100914.17;219272;1286;138338;-90
2023/05/21 22:10:00;;;;;;;7.00;3.70;;;;;;;17.51;50.45;100915.50;218884;1287;139408;-88
2023/05/21 22:15:03;;;;;;;10.60;4.40;;;;;;;17.44;50.59;100916.30;219267;1286;139162;-88
2023/05/21 22:20:04;;;;;;;9.70;4.30;;;;;;;17.39;50.90;100911.08;218870;1288;138417;-88
2023/05/21 22:25:05;;;;;;;9.00;3.70;;;;;;;17.34;51.00;100909.59;219253;1286;138089;-88
2023/05/21 22:30:06;;;;;;;10.00;3.50;;;;;;;17.30;51.23;100910.73;218836;1286;139255;-85
2023/05/21 22:35:07;;;;;;;7.60;3.70;;;;;;;17.26;51.44;100907.36;219337;1286;138288;-88